sensor_id;sensor_type;location;lat;lon;timestamp;temperature;humidity
18781;DHT22;9519;51.890;8.970;2023-05-10T00:00:32;17.10;98.30
18781;DHT22;9519;51.890;8.970;2023-05-10T00:05:35;17.10;98.40
18781;DHT22;9519;51.890;8.970;2023-05-10T00:10:37;17.10;98.50
18781;DHT22;9519;51.890;8.970;2023-05-10T00:15:42;17.10;98.60
18781;DHT22;9519;51.890;8.970;2023-05-10T00:20:44;17.10;98.70
18781;DHT22;9519;51.890;8.970;2023-05-10T00:25:46;17.10;98.70
18781;DHT22;9519;51.890;8.970;2023-05-10T00:30:50;17.10;98.90
18781;DHT22;9519;51.890;8.970;2023-05-10T00:35:52;17.10;99.00
18781;DHT22;9519;51.890;8.970;2023-05-10T00:40:54;17.00;99.10
18781;DHT22;9519;51.890;8.970;2023-05-10T00:45:57;17.00;99.30
18781;DHT22;9519;51.890;8.970;2023-05-10T00:51:00;17.00;99.40
18781;DHT22;9519;51.890;8.970;2023-05-10T00:56:03;17.00;99.50
18781;DHT22;9519;51.890;8.970;2023-05-10T01:01:07;16.90;99.70
18781;DHT22;9519;51.890;8.970;2023-05-10T01:06:10;16.90;99.80
18781;DHT22;9519;51.890;8.970;2023-05-10T01:11:12;16.90;99.90
18781;DHT22;9519;51.890;8.970;2023-05-10T01:16:16;16.80;99.90
18781;DHT22;9519;51.890;8.970;2023-05-10T01:21:23;16.80;99.90
18781;DHT22;9519;51.890;8.970;2023-05-10T01:32:48;16.80;99.90
18781;DHT22;9519;51.890;8.970;2023-05-10T01:38:02;16.70;99.90
18781;DHT22;9519;51.890;8.970;2023-05-10T01:43:19;16.70;99.90
18781;DHT22;9519;51.890;8.970;2023-05-10T01:48:27;16.60;99.90
18781;DHT22;9519;51.890;8.970;2023-05-10T01:53:32;16.60;99.90
18781;DHT22;9519;51.890;8.970;2023-05-10T01:58:39;16.60;99.90
18781;DHT22;9519;51.890;8.970;2023-05-10T02:03:44;16.60;99.90
18781;DHT22;9519;51.890;8.970;2023-05-10T02:08:49;16.50;99.90
18781;DHT22;9519;51.890;8.970;2023-05-10T02:13:55;16.50;99.90
18781;DHT22;9519;51.890;8.970;2023-05-10T02:19:01;16.50;99.90
18781;DHT22;9519;51.890;8.970;2023-05-10T02:24:05;16.50;99.90
18781;DHT22;9519;51.890;8.970;2023-05-10T02:29:09;16.50;99.90
18781;DHT22;9519;51.890;8.970;2023-05-10T02:34:15;16.50;99.90
18781;DHT22;9519;51.890;8.970;2023-05-10T02:39:18;16.40;99.90
18781;DHT22;9519;51.890;8.970;2023-05-10T02:44:22;16.40;99.90
18781;DHT22;9519;51.890;8.970;2023-05-10T02:49:26;16.40;99.90
18781;DHT22;9519;51.890;8.970;2023-05-10T02:54:34;16.20;99.90
18781;DHT22;9519;51.890;8.970;2023-05-10T02:59:42;16.00;99.90
18781;DHT22;9519;51.890;8.970;2023-05-10T03:04:46;15.90;99.90
18781;DHT22;9519;51.890;8.970;2023-05-10T03:09:49;15.70;99.90
18781;DHT22;9519;51.890;8.970;2023-05-10T03:14:56;15.50;99.90
18781;DHT22;9519;51.890;8.970;2023-05-10T03:20:08;15.30;99.90
18781;DHT22;9519;51.890;8.970;2023-05-10T03:25:15;15.10;99.90
18781;DHT22;9519;51.890;8.970;2023-05-10T03:30:19;15.00;99.90
18781;DHT22;9519;51.890;8.970;2023-05-10T03:35:26;14.80;99.90
18781;DHT22;9519;51.890;8.970;2023-05-10T03:40:28;14.80;99.90
18781;DHT22;9519;51.890;8.970;2023-05-10T03:45:32;14.70;99.90
18781;DHT22;9519;51.890;8.970;2023-05-10T03:50:35;14.60;99.90
18781;DHT22;9519;51.890;8.970;2023-05-10T03:55:37;14.50;99.90
18781;DHT22;9519;51.890;8.970;2023-05-10T04:00:39;14.50;99.90
18781;DHT22;9519;51.890;8.970;2023-05-10T04:05:47;14.40;99.90
18781;DHT22;9519;51.890;8.970;2023-05-10T04:10:49;14.30;99.90
18781;DHT22;9519;51.890;8.970;2023-05-10T04:15:54;14.30;99.90
18781;DHT22;9519;51.890;8.970;2023-05-10T04:20:57;14.40;99.90
18781;DHT22;9519;51.890;8.970;2023-05-10T04:26:00;14.40;99.90
18781;DHT22;9519;51.890;8.970;2023-05-10T04:31:02;14.40;99.90
18781;DHT22;9519;51.890;8.970;2023-05-10T04:36:07;14.40;99.90
18781;DHT22;9519;51.890;8.970;2023-05-10T04:41:10;14.40;99.90
18781;DHT22;9519;51.890;8.970;2023-05-10T04:46:12;14.50;99.90
18781;DHT22;9519;51.890;8.970;2023-05-10T04:51:16;14.40;99.90
18781;DHT22;9519;51.890;8.970;2023-05-10T04:56:18;14.40;99.90
18781;DHT22;9519;51.890;8.970;2023-05-10T05:01:20;14.40;99.90
18781;DHT22;9519;51.890;8.970;2023-05-10T05:06:25;14.40;99.90
18781;DHT22;9519;51.890;8.970;2023-05-10T05:11:27;14.30;99.90
18781;DHT22;9519;51.890;8.970;2023-05-10T05:16:30;14.20;99.90
18781;DHT22;9519;51.890;8.970;2023-05-10T05:21:34;14.20;99.90
18781;DHT22;9519;51.890;8.970;2023-05-10T05:26:36;14.10;99.90
18781;DHT22;9519;51.890;8.970;2023-05-10T05:31:38;14.00;99.90
18781;DHT22;9519;51.890;8.970;2023-05-10T05:36:41;13.90;99.90
18781;DHT22;9519;51.890;8.970;2023-05-10T05:41:43;13.80;99.90
18781;DHT22;9519;51.890;8.970;2023-05-10T05:46:48;13.80;99.90
18781;DHT22;9519;51.890;8.970;2023-05-10T05:51:51;13.70;99.90
18781;DHT22;9519;51.890;8.970;2023-05-10T05:56:54;13.70;99.90
18781;DHT22;9519;51.890;8.970;2023-05-10T06:01:57;13.70;99.90
18781;DHT22;9519;51.890;8.970;2023-05-10T06:07:00;13.60;99.90
18781;DHT22;9519;51.890;8.970;2023-05-10T06:12:02;13.60;99.90
18781;DHT22;9519;51.890;8.970;2023-05-10T06:17:05;13.50;99.90
18781;DHT22;9519;51.890;8.970;2023-05-10T06:22:09;13.60;99.90
18781;DHT22;9519;51.890;8.970;2023-05-10T06:27:11;13.50;99.90
18781;DHT22;9519;51.890;8.970;2023-05-10T06:32:13;13.50;99.90
18781;DHT22;9519;51.890;8.970;2023-05-10T06:37:16;13.50;99.90
18781;DHT22;9519;51.890;8.970;2023-05-10T06:42:19;13.60;99.90
18781;DHT22;9519;51.890;8.970;2023-05-10T06:47:21;13.60;99.90
18781;DHT22;9519;51.890;8.970;2023-05-10T06:52:24;13.60;99.90
18781;DHT22;9519;51.890;8.970;2023-05-10T06:57:26;13.60;99.90
18781;DHT22;9519;51.890;8.970;2023-05-10T07:02:28;13.60;99.90
18781;DHT22;9519;51.890;8.970;2023-05-10T07:07:31;13.60;99.90
18781;DHT22;9519;51.890;8.970;2023-05-10T07:12:34;13.50;99.90
18781;DHT22;9519;51.890;8.970;2023-05-10T07:17:36;13.50;99.90
18781;DHT22;9519;51.890;8.970;2023-05-10T07:22:39;13.50;99.90
18781;DHT22;9519;51.890;8.970;2023-05-10T07:27:41;13.50;99.90
18781;DHT22;9519;51.890;8.970;2023-05-10T07:32:44;13.50;99.90
18781;DHT22;9519;51.890;8.970;2023-05-10T07:37:47;13.60;99.90
18781;DHT22;9519;51.890;8.970;2023-05-10T07:42:49;13.60;99.90
18781;DHT22;9519;51.890;8.970;2023-05-10T07:47:51;13.70;99.90
18781;DHT22;9519;51.890;8.970;2023-05-10T07:52:54;13.80;99.90
18781;DHT22;9519;51.890;8.970;2023-05-10T07:57:57;13.90;99.90
18781;DHT22;9519;51.890;8.970;2023-05-10T08:03:01;13.90;99.90
18781;DHT22;9519;51.890;8.970;2023-05-10T08:08:04;14.10;99.90
18781;DHT22;9519;51.890;8.970;2023-05-10T08:13:07;14.20;99.90
18781;DHT22;9519;51.890;8.970;2023-05-10T08:18:09;14.20;99.90
18781;DHT22;9519;51.890;8.970;2023-05-10T08:23:13;14.30;99.90
18781;DHT22;9519;51.890;8.970;2023-05-10T08:28:15;14.40;99.90
18781;DHT22;9519;51.890;8.970;2023-05-10T08:33:17;14.50;99.90
18781;DHT22;9519;51.890;8.970;2023-05-10T08:38:21;14.60;99.90
18781;DHT22;9519;51.890;8.970;2023-05-10T08:43:26;14.70;99.90
18781;DHT22;9519;51.890;8.970;2023-05-10T08:48:30;14.80;99.90
18781;DHT22;9519;51.890;8.970;2023-05-10T08:53:36;14.80;99.90
18781;DHT22;9519;51.890;8.970;2023-05-10T08:58:39;14.90;99.90
18781;DHT22;9519;51.890;8.970;2023-05-10T09:03:41;14.90;99.90
18781;DHT22;9519;51.890;8.970;2023-05-10T09:08:45;15.00;99.90
18781;DHT22;9519;51.890;8.970;2023-05-10T09:13:48;15.10;99.90
18781;DHT22;9519;51.890;8.970;2023-05-10T09:18:52;15.20;99.90
18781;DHT22;9519;51.890;8.970;2023-05-10T09:23:56;15.40;99.90
18781;DHT22;9519;51.890;8.970;2023-05-10T09:28:59;15.50;99.90
18781;DHT22;9519;51.890;8.970;2023-05-10T09:34:03;15.50;99.90
18781;DHT22;9519;51.890;8.970;2023-05-10T09:39:06;15.50;99.90
18781;DHT22;9519;51.890;8.970;2023-05-10T09:44:08;15.60;99.90
18781;DHT22;9519;51.890;8.970;2023-05-10T09:49:14;15.60;99.90
18781;DHT22;9519;51.890;8.970;2023-05-10T09:54:19;15.70;99.90
18781;DHT22;9519;51.890;8.970;2023-05-10T09:59:21;15.50;99.90
18781;DHT22;9519;51.890;8.970;2023-05-10T10:04:27;15.30;99.90
18781;DHT22;9519;51.890;8.970;2023-05-10T10:09:31;15.30;99.90
18781;DHT22;9519;51.890;8.970;2023-05-10T10:14:35;15.20;99.90
18781;DHT22;9519;51.890;8.970;2023-05-10T10:19:37;15.30;99.90
18781;DHT22;9519;51.890;8.970;2023-05-10T10:24:41;15.40;99.90
18781;DHT22;9519;51.890;8.970;2023-05-10T10:30:02;15.50;99.90
18781;DHT22;9519;51.890;8.970;2023-05-10T10:35:12;15.70;99.90
18781;DHT22;9519;51.890;8.970;2023-05-10T10:40:29;15.80;99.90
18781;DHT22;9519;51.890;8.970;2023-05-10T10:45:32;15.80;99.90
18781;DHT22;9519;51.890;8.970;2023-05-10T10:50:43;15.90;99.90
18781;DHT22;9519;51.890;8.970;2023-05-10T10:55:48;16.00;99.90
18781;DHT22;9519;51.890;8.970;2023-05-10T11:00:50;16.10;99.90
18781;DHT22;9519;51.890;8.970;2023-05-10T11:06:11;16.30;99.90
18781;DHT22;9519;51.890;8.970;2023-05-10T11:11:15;16.50;99.90
18781;DHT22;9519;51.890;8.970;2023-05-10T11:16:18;16.60;99.90
18781;DHT22;9519;51.890;8.970;2023-05-10T11:21:22;16.80;99.90
18781;DHT22;9519;51.890;8.970;2023-05-10T11:26:29;17.00;99.90
18781;DHT22;9519;51.890;8.970;2023-05-10T11:31:34;17.10;99.90
18781;DHT22;9519;51.890;8.970;2023-05-10T11:36:36;17.40;99.90
18781;DHT22;9519;51.890;8.970;2023-05-10T11:41:40;17.50;99.90
18781;DHT22;9519;51.890;8.970;2023-05-10T11:46:42;17.60;99.90
18781;DHT22;9519;51.890;8.970;2023-05-10T11:51:44;17.80;99.90
18781;DHT22;9519;51.890;8.970;2023-05-10T11:56:47;18.00;99.90
18781;DHT22;9519;51.890;8.970;2023-05-10T12:01:51;18.10;99.90
18781;DHT22;9519;51.890;8.970;2023-05-10T12:06:53;18.20;99.90
18781;DHT22;9519;51.890;8.970;2023-05-10T12:11:57;18.30;99.90
18781;DHT22;9519;51.890;8.970;2023-05-10T12:17:02;18.50;99.90
18781;DHT22;9519;51.890;8.970;2023-05-10T12:22:04;18.60;99.90
18781;DHT22;9519;51.890;8.970;2023-05-10T12:27:09;18.70;99.90
18781;DHT22;9519;51.890;8.970;2023-05-10T12:32:12;18.60;99.90
18781;DHT22;9519;51.890;8.970;2023-05-10T12:37:14;18.50;99.80
18781;DHT22;9519;51.890;8.970;2023-05-10T12:42:18;18.40;99.90
18781;DHT22;9519;51.890;8.970;2023-05-10T12:47:20;18.20;99.60
18781;DHT22;9519;51.890;8.970;2023-05-10T12:52:22;18.10;99.80
18781;DHT22;9519;51.890;8.970;2023-05-10T12:57:26;17.80;99.90
18781;DHT22;9519;51.890;8.970;2023-05-10T13:02:28;17.40;99.90
18781;DHT22;9519;51.890;8.970;2023-05-10T13:07:30;17.00;99.90
18781;DHT22;9519;51.890;8.970;2023-05-10T13:12:34;16.70;99.90
18781;DHT22;9519;51.890;8.970;2023-05-10T13:17:36;16.40;99.90
18781;DHT22;9519;51.890;8.970;2023-05-10T13:22:40;16.30;99.90
18781;DHT22;9519;51.890;8.970;2023-05-10T13:27:44;16.20;99.90
18781;DHT22;9519;51.890;8.970;2023-05-10T13:32:46;16.30;99.90
18781;DHT22;9519;51.890;8.970;2023-05-10T13:37:48;16.40;99.90
18781;DHT22;9519;51.890;8.970;2023-05-10T13:42:51;16.50;99.90
18781;DHT22;9519;51.890;8.970;2023-05-10T13:47:53;16.60;99.90
18781;DHT22;9519;51.890;8.970;2023-05-10T13:52:55;16.70;99.90
18781;DHT22;9519;51.890;8.970;2023-05-10T13:57:59;16.80;99.90
18781;DHT22;9519;51.890;8.970;2023-05-10T14:03:01;17.00;99.90
18781;DHT22;9519;51.890;8.970;2023-05-10T14:08:03;17.20;99.90
18781;DHT22;9519;51.890;8.970;2023-05-10T14:13:06;17.30;99.90
18781;DHT22;9519;51.890;8.970;2023-05-10T14:18:08;17.50;99.90
18781;DHT22;9519;51.890;8.970;2023-05-10T14:23:11;17.60;99.90
18781;DHT22;9519;51.890;8.970;2023-05-10T14:28:14;17.90;99.90
18781;DHT22;9519;51.890;8.970;2023-05-10T14:33:17;18.30;99.90
18781;DHT22;9519;51.890;8.970;2023-05-10T14:38:19;18.40;99.90
18781;DHT22;9519;51.890;8.970;2023-05-10T14:43:23;18.40;99.90
18781;DHT22;9519;51.890;8.970;2023-05-10T14:48:25;18.30;99.90
18781;DHT22;9519;51.890;8.970;2023-05-10T14:53:27;18.30;99.90
18781;DHT22;9519;51.890;8.970;2023-05-10T14:58:30;18.30;99.90
18781;DHT22;9519;51.890;8.970;2023-05-10T15:03:32;18.30;99.90
18781;DHT22;9519;51.890;8.970;2023-05-10T15:08:34;18.30;99.90
18781;DHT22;9519;51.890;8.970;2023-05-10T15:13:38;18.30;99.90
18781;DHT22;9519;51.890;8.970;2023-05-10T15:18:40;18.30;99.90
18781;DHT22;9519;51.890;8.970;2023-05-10T15:23:42;18.20;99.90
18781;DHT22;9519;51.890;8.970;2023-05-10T15:28:46;18.10;99.20
18781;DHT22;9519;51.890;8.970;2023-05-10T15:33:48;17.90;98.80
18781;DHT22;9519;51.890;8.970;2023-05-10T15:38:50;17.70;98.60
18781;DHT22;9519;51.890;8.970;2023-05-10T15:43:53;17.50;98.90
18781;DHT22;9519;51.890;8.970;2023-05-10T15:48:57;17.50;99.30
18781;DHT22;9519;51.890;8.970;2023-05-10T15:53:59;17.40;99.70
18781;DHT22;9519;51.890;8.970;2023-05-10T15:59:03;17.20;99.70
18781;DHT22;9519;51.890;8.970;2023-05-10T16:04:08;17.00;99.50
18781;DHT22;9519;51.890;8.970;2023-05-10T16:09:10;16.90;99.70
18781;DHT22;9519;51.890;8.970;2023-05-10T16:14:13;16.90;99.40
18781;DHT22;9519;51.890;8.970;2023-05-10T16:19:16;16.80;99.50
18781;DHT22;9519;51.890;8.970;2023-05-10T16:24:18;16.90;99.70
18781;DHT22;9519;51.890;8.970;2023-05-10T16:29:22;16.90;99.40
18781;DHT22;9519;51.890;8.970;2023-05-10T16:34:24;17.00;99.30
18781;DHT22;9519;51.890;8.970;2023-05-10T16:39:26;17.00;99.40
18781;DHT22;9519;51.890;8.970;2023-05-10T16:44:30;17.10;99.40
18781;DHT22;9519;51.890;8.970;2023-05-10T16:49:32;17.10;99.60
18781;DHT22;9519;51.890;8.970;2023-05-10T16:54:36;17.20;99.70
18781;DHT22;9519;51.890;8.970;2023-05-10T16:59:39;17.30;99.80
18781;DHT22;9519;51.890;8.970;2023-05-10T17:04:41;17.20;99.70
18781;DHT22;9519;51.890;8.970;2023-05-10T17:09:45;17.20;99.50
18781;DHT22;9519;51.890;8.970;2023-05-10T17:14:48;17.20;99.50
18781;DHT22;9519;51.890;8.970;2023-05-10T17:19:50;17.20;99.40
18781;DHT22;9519;51.890;8.970;2023-05-10T17:24:53;17.10;99.40
18781;DHT22;9519;51.890;8.970;2023-05-10T17:29:56;17.00;99.40
18781;DHT22;9519;51.890;8.970;2023-05-10T17:34:58;16.90;99.40
18781;DHT22;9519;51.890;8.970;2023-05-10T17:40:00;16.60;99.70
18781;DHT22;9519;51.890;8.970;2023-05-10T17:45:08;16.40;99.90
18781;DHT22;9519;51.890;8.970;2023-05-10T17:50:10;16.20;99.90
18781;DHT22;9519;51.890;8.970;2023-05-10T17:55:12;16.10;99.90
18781;DHT22;9519;51.890;8.970;2023-05-10T18:00:17;16.00;99.90
18781;DHT22;9519;51.890;8.970;2023-05-10T18:05:19;16.10;99.90
18781;DHT22;9519;51.890;8.970;2023-05-10T18:10:23;16.00;99.90
18781;DHT22;9519;51.890;8.970;2023-05-10T18:15:27;16.00;99.90
18781;DHT22;9519;51.890;8.970;2023-05-10T18:20:29;15.90;99.90
18781;DHT22;9519;51.890;8.970;2023-05-10T18:25:32;15.90;99.90
18781;DHT22;9519;51.890;8.970;2023-05-10T18:30:36;15.90;99.90
18781;DHT22;9519;51.890;8.970;2023-05-10T18:35:38;15.80;99.90
18781;DHT22;9519;51.890;8.970;2023-05-10T18:40:40;15.80;99.90
18781;DHT22;9519;51.890;8.970;2023-05-10T18:45:44;15.80;99.90
18781;DHT22;9519;51.890;8.970;2023-05-10T18:50:46;15.70;99.90
18781;DHT22;9519;51.890;8.970;2023-05-10T18:55:54;15.60;99.90
18781;DHT22;9519;51.890;8.970;2023-05-10T19:00:59;15.50;99.90
18781;DHT22;9519;51.890;8.970;2023-05-10T19:06:01;15.40;99.90
18781;DHT22;9519;51.890;8.970;2023-05-10T19:11:03;15.40;99.90
18781;DHT22;9519;51.890;8.970;2023-05-10T19:16:10;15.40;99.90
18781;DHT22;9519;51.890;8.970;2023-05-10T19:21:14;15.40;99.90
18781;DHT22;9519;51.890;8.970;2023-05-10T19:26:16;15.40;99.90
18781;DHT22;9519;51.890;8.970;2023-05-10T19:31:20;15.40;99.90
18781;DHT22;9519;51.890;8.970;2023-05-10T19:36:22;15.40;99.90
18781;DHT22;9519;51.890;8.970;2023-05-10T19:41:24;15.40;99.90
18781;DHT22;9519;51.890;8.970;2023-05-10T19:46:28;15.40;99.90
18781;DHT22;9519;51.890;8.970;2023-05-10T19:51:30;15.30;99.90
18781;DHT22;9519;51.890;8.970;2023-05-10T19:56:32;15.30;99.90
18781;DHT22;9519;51.890;8.970;2023-05-10T20:01:36;15.30;99.90
18781;DHT22;9519;51.890;8.970;2023-05-10T20:06:38;15.30;99.90
18781;DHT22;9519;51.890;8.970;2023-05-10T20:11:40;15.30;99.90
18781;DHT22;9519;51.890;8.970;2023-05-10T20:16:43;15.20;99.90
18781;DHT22;9519;51.890;8.970;2023-05-10T20:21:45;15.20;99.90
18781;DHT22;9519;51.890;8.970;2023-05-10T20:26:47;15.10;99.90
18781;DHT22;9519;51.890;8.970;2023-05-10T20:31:51;15.10;99.90
18781;DHT22;9519;51.890;8.970;2023-05-10T20:36:53;15.00;99.90
18781;DHT22;9519;51.890;8.970;2023-05-10T20:41:55;15.00;99.90
18781;DHT22;9519;51.890;8.970;2023-05-10T20:46:59;15.00;99.90
18781;DHT22;9519;51.890;8.970;2023-05-10T20:52:01;14.90;99.90
18781;DHT22;9519;51.890;8.970;2023-05-10T20:57:03;14.90;99.90
18781;DHT22;9519;51.890;8.970;2023-05-10T21:02:06;14.90;99.90
18781;DHT22;9519;51.890;8.970;2023-05-10T21:07:08;14.90;99.90
18781;DHT22;9519;51.890;8.970;2023-05-10T21:12:10;14.90;99.90
18781;DHT22;9519;51.890;8.970;2023-05-10T21:17:15;14.90;99.90
18781;DHT22;9519;51.890;8.970;2023-05-10T21:22:17;14.80;99.90
18781;DHT22;9519;51.890;8.970;2023-05-10T21:27:19;14.80;99.90
18781;DHT22;9519;51.890;8.970;2023-05-10T21:32:22;14.80;99.90
18781;DHT22;9519;51.890;8.970;2023-05-10T21:37:25;14.80;99.90
18781;DHT22;9519;51.890;8.970;2023-05-10T21:42:27;14.80;99.90
18781;DHT22;9519;51.890;8.970;2023-05-10T21:47:33;14.70;99.90
18781;DHT22;9519;51.890;8.970;2023-05-10T21:52:35;14.70;99.90
18781;DHT22;9519;51.890;8.970;2023-05-10T21:57:38;14.70;99.90
18781;DHT22;9519;51.890;8.970;2023-05-10T22:02:44;14.60;99.90
18781;DHT22;9519;51.890;8.970;2023-05-10T22:07:46;14.60;99.90
18781;DHT22;9519;51.890;8.970;2023-05-10T22:12:49;14.60;99.90
18781;DHT22;9519;51.890;8.970;2023-05-10T22:17:52;14.50;99.90
18781;DHT22;9519;51.890;8.970;2023-05-10T22:22:54;14.60;99.90
18781;DHT22;9519;51.890;8.970;2023-05-10T22:27:56;14.50;99.90
18781;DHT22;9519;51.890;8.970;2023-05-10T22:33:00;14.50;99.90
18781;DHT22;9519;51.890;8.970;2023-05-10T22:38:02;14.40;99.90
18781;DHT22;9519;51.890;8.970;2023-05-10T22:43:06;14.40;99.90
18781;DHT22;9519;51.890;8.970;2023-05-10T22:48:10;14.40;99.90
18781;DHT22;9519;51.890;8.970;2023-05-10T22:53:12;14.40;99.90
18781;DHT22;9519;51.890;8.970;2023-05-10T22:58:14;14.40;99.90
18781;DHT22;9519;51.890;8.970;2023-05-10T23:03:17;14.40;99.90
18781;DHT22;9519;51.890;8.970;2023-05-10T23:08:19;14.40;99.90
18781;DHT22;9519;51.890;8.970;2023-05-10T23:13:21;14.40;99.90
18781;DHT22;9519;51.890;8.970;2023-05-10T23:18:25;14.40;99.90
18781;DHT22;9519;51.890;8.970;2023-05-10T23:23:27;14.40;99.90
18781;DHT22;9519;51.890;8.970;2023-05-10T23:28:29;14.40;99.90
18781;DHT22;9519;51.890;8.970;2023-05-10T23:33:33;14.40;99.90
18781;DHT22;9519;51.890;8.970;2023-05-10T23:38:36;14.40;99.90
18781;DHT22;9519;51.890;8.970;2023-05-10T23:43:39;14.40;99.90
18781;DHT22;9519;51.890;8.970;2023-05-10T23:48:42;14.50;99.90
18781;DHT22;9519;51.890;8.970;2023-05-10T23:53:44;14.50;99.90
18781;DHT22;9519;51.890;8.970;2023-05-10T23:58:46;14.40;99.90
